createdAt,value
2022-08-09T00:01:10.508Z,17.99
2022-08-09T00:04:06.251Z,18.07
2022-08-09T00:06:18.099Z,18.02
2022-08-09T00:08:40.017Z,18.04
2022-08-09T00:10:58.461Z,18.06
2022-08-09T00:13:17.599Z,18.06
2022-08-09T00:15:58.636Z,17.98
2022-08-09T00:18:12.894Z,17.88
2022-08-09T00:20:31.862Z,17.85
2022-08-09T00:22:51.149Z,17.74
2022-08-09T00:25:10.265Z,17.73
2022-08-09T00:27:30.218Z,17.68
2022-08-09T00:30:16.746Z,17.64
2022-08-09T00:32:32.452Z,17.46
2022-08-09T00:34:52.335Z,17.53
2022-08-09T00:37:09.969Z,17.45
2022-08-09T00:40:13.597Z,17.38
2022-08-09T00:44:10.305Z,17.36
2022-08-09T00:44:41.975Z,17.30
2022-08-09T00:47:04.564Z,17.26
2022-08-09T00:49:22.585Z,17.17
2022-08-09T00:51:47.057Z,17.13
2022-08-09T00:54:11.680Z,17.10
2022-08-09T00:56:28.964Z,17.09
2022-08-09T00:58:49.023Z,17.06
2022-08-09T01:01:06.255Z,16.96
2022-08-09T01:03:28.439Z,16.92
2022-08-09T01:05:51.977Z,16.89
2022-08-09T01:08:11.418Z,16.83
2022-08-09T01:10:29.567Z,16.84
2022-08-09T01:12:46.470Z,16.81
2022-08-09T01:15:05.988Z,16.76
2022-08-09T01:17:34.702Z,16.70
2022-08-09T01:20:02.194Z,16.65
2022-08-09T01:22:19.973Z,16.55
2022-08-09T01:24:37.036Z,16.57
2022-08-09T01:26:56.188Z,16.59
2022-08-09T01:29:13.426Z,16.54
2022-08-09T01:32:32.279Z,16.48
2022-08-09T01:34:10.481Z,16.46
2022-08-09T01:36:28.000Z,16.38
2022-08-09T01:38:46.360Z,16.34
2022-08-09T01:41:05.783Z,16.30
2022-08-09T01:43:24.062Z,16.29
2022-08-09T01:45:44.736Z,16.29
2022-08-09T01:48:06.038Z,16.23
2022-08-09T01:50:26.672Z,16.19
2022-08-09T01:52:54.449Z,16.20
2022-08-09T01:55:11.497Z,16.17
2022-08-09T01:57:29.809Z,16.15
2022-08-09T02:00:00.257Z,16.03
2022-08-09T02:02:31.252Z,16.04
2022-08-09T02:04:50.101Z,15.95
2022-08-09T02:07:07.422Z,15.95
2022-08-09T02:09:42.028Z,15.93
2022-08-09T02:11:59.824Z,15.90
2022-08-09T02:14:26.268Z,15.90
2022-08-09T02:17:00.023Z,15.83
2022-08-09T02:19:21.073Z,15.83
2022-08-09T02:21:38.522Z,15.73
2022-08-09T02:23:57.873Z,15.74
2022-08-09T02:26:26.916Z,15.72
2022-08-09T02:28:44.384Z,15.62
2022-08-09T02:31:06.002Z,15.56
2022-08-09T02:33:23.253Z,15.46
2022-08-09T02:36:01.928Z,15.45
2022-08-09T02:38:27.948Z,15.42
2022-08-09T02:40:46.812Z,15.38
2022-08-09T02:43:05.770Z,15.39
2022-08-09T02:45:26.611Z,15.37
2022-08-09T02:47:58.055Z,15.34
2022-08-09T02:50:16.750Z,15.29
2022-08-09T02:52:35.470Z,15.26
2022-08-09T02:54:55.048Z,15.24
2022-08-09T02:57:23.143Z,15.23
2022-08-09T02:59:40.670Z,15.20
2022-08-09T03:02:18.299Z,15.16
2022-08-09T03:04:37.876Z,15.15
2022-08-09T03:06:55.330Z,15.11
2022-08-09T03:09:12.507Z,15.11
2022-08-09T03:12:06.598Z,15.10
2022-08-09T03:14:06.314Z,15.15
2022-08-09T03:16:23.558Z,15.03
2022-08-09T03:18:40.596Z,14.95
2022-08-09T03:21:00.165Z,14.89
2022-08-09T03:23:24.462Z,14.82
2022-08-09T03:25:59.218Z,14.80
2022-08-09T03:28:18.997Z,14.75
2022-08-09T03:30:36.846Z,14.71
2022-08-09T03:32:53.915Z,14.68
2022-08-09T03:35:15.106Z,14.65
2022-08-09T03:37:56.026Z,14.57
2022-08-09T03:40:18.135Z,14.58
2022-08-09T03:42:36.262Z,14.54
2022-08-09T03:44:53.696Z,14.48
2022-08-09T03:47:14.377Z,14.45
2022-08-09T03:49:32.896Z,14.38
2022-08-09T03:51:56.169Z,14.40
2022-08-09T03:54:16.286Z,14.34
2022-08-09T03:56:34.297Z,14.32
2022-08-09T03:58:51.276Z,14.28
2022-08-09T04:01:11.598Z,14.23
2022-08-09T04:03:46.527Z,14.21
2022-08-09T04:06:07.737Z,14.23
2022-08-09T04:08:29.683Z,14.18
2022-08-09T04:10:47.999Z,14.13
2022-08-09T04:13:06.866Z,14.16
2022-08-09T04:15:40.437Z,14.15
2022-08-09T04:18:00.858Z,14.08
2022-08-09T04:20:19.678Z,14.07
2022-08-09T04:22:36.626Z,14.02
2022-08-09T04:24:58.703Z,14.00
2022-08-09T04:27:16.122Z,13.97
2022-08-09T04:29:33.072Z,13.94
2022-08-09T04:31:50.079Z,13.93
2022-08-09T04:34:07.175Z,13.95
2022-08-09T04:36:24.561Z,13.92
2022-08-09T04:38:41.683Z,13.89
2022-08-09T04:40:59.040Z,13.87
2022-08-09T04:43:17.067Z,13.88
2022-08-09T04:45:36.214Z,13.87
2022-08-09T04:48:12.500Z,13.86
2022-08-09T04:50:33.677Z,13.92
2022-08-09T04:52:52.428Z,13.92
2022-08-09T04:55:12.242Z,13.94
2022-08-09T04:57:53.875Z,13.94
2022-08-09T05:00:08.222Z,13.93
2022-08-09T05:02:27.499Z,13.90
2022-08-09T05:04:45.094Z,13.92
2022-08-09T05:07:04.442Z,13.93
2022-08-09T05:09:22.204Z,13.99
2022-08-09T05:11:41.827Z,14.00
2022-08-09T05:14:00.865Z,13.99
2022-08-09T05:16:31.686Z,13.95
2022-08-09T05:18:58.643Z,13.98
2022-08-09T05:21:22.744Z,14.04
2022-08-09T05:23:55.221Z,14.08
2022-08-09T05:26:26.548Z,14.15
2022-08-09T05:28:53.232Z,14.16
2022-08-09T05:31:10.295Z,14.22
2022-08-09T05:33:33.126Z,14.35
2022-08-09T05:35:51.266Z,14.30
2022-08-09T05:38:08.300Z,14.31
2022-08-09T05:40:25.617Z,14.37
2022-08-09T05:42:44.103Z,14.42
2022-08-09T05:45:02.470Z,14.45
2022-08-09T05:47:19.635Z,14.53
2022-08-09T05:50:24.390Z,14.69
2022-08-09T05:52:15.787Z,14.85
2022-08-09T05:54:32.823Z,14.92
2022-08-09T05:56:54.961Z,15.07
2022-08-09T05:59:15.138Z,15.24
2022-08-09T06:01:42.727Z,15.38
2022-08-09T06:04:00.336Z,15.56
2022-08-09T06:06:20.439Z,15.70
2022-08-09T06:08:39.424Z,15.82
2022-08-09T06:10:58.069Z,16.00
2022-08-09T06:13:20.190Z,16.15
2022-08-09T06:15:37.481Z,16.29
2022-08-09T06:17:54.604Z,16.37
2022-08-09T06:20:11.872Z,16.45
2022-08-09T06:22:36.265Z,16.61
2022-08-09T06:24:53.531Z,16.76
2022-08-09T06:27:10.822Z,16.90
2022-08-09T06:29:32.783Z,17.08
2022-08-09T06:32:36.158Z,17.24
2022-08-09T06:34:42.641Z,17.39
2022-08-09T06:37:00.142Z,17.52
2022-08-09T06:39:17.440Z,17.65
2022-08-09T06:42:07.969Z,17.78
2022-08-09T06:44:11.701Z,17.83
2022-08-09T06:46:39.998Z,17.98
2022-08-09T06:49:00.289Z,18.12
2022-08-09T06:51:17.523Z,18.21
2022-08-09T06:53:38.444Z,18.38
2022-08-09T06:55:55.787Z,18.48
2022-08-09T07:00:52.864Z,18.59
2022-08-09T07:00:58.501Z,18.76
2022-08-09T07:03:16.637Z,18.92
2022-08-09T07:06:02.638Z,19.06
2022-08-09T07:08:11.150Z,19.06
2022-08-09T07:10:32.008Z,19.18
2022-08-09T07:12:57.109Z,19.37
2022-08-09T07:15:54.103Z,19.63
2022-08-09T07:17:52.662Z,19.89
2022-08-09T07:20:13.426Z,20.13
2022-08-09T07:22:34.595Z,20.42
2022-08-09T07:24:52.488Z,20.66
2022-08-09T07:27:11.130Z,20.89
2022-08-09T07:29:44.730Z,21.07
2022-08-09T07:32:03.642Z,21.18
2022-08-09T07:34:22.139Z,21.39
2022-08-09T07:36:42.979Z,21.45
2022-08-09T07:39:04.461Z,21.66
2022-08-09T07:41:33.151Z,21.78
2022-08-09T07:43:56.700Z,21.98
2022-08-09T07:46:19.031Z,22.09
2022-08-09T07:48:39.271Z,22.20
2022-08-09T07:51:02.999Z,22.48
2022-08-09T07:53:36.507Z,22.65
2022-08-09T07:56:06.671Z,22.73
2022-08-09T07:58:26.820Z,23.05
2022-08-09T08:00:58.771Z,23.00
2022-08-09T08:03:21.000Z,23.20
2022-08-09T08:05:57.707Z,23.36
2022-08-09T08:09:00.088Z,23.29
2022-08-09T08:11:03.431Z,23.41
2022-08-09T08:13:39.899Z,23.63
2022-08-09T08:16:31.561Z,23.87
2022-08-09T08:18:46.476Z,24.09
2022-08-09T08:21:03.911Z,24.11
2022-08-09T08:23:20.943Z,24.23
2022-08-09T08:25:46.152Z,24.26
2022-08-09T08:28:07.888Z,24.56
2022-08-09T08:30:31.323Z,24.76
2022-08-09T08:32:52.921Z,24.69
2022-08-09T08:35:11.228Z,25.02
2022-08-09T08:37:41.955Z,25.06
2022-08-09T08:40:12.388Z,25.08
2022-08-09T08:42:32.234Z,25.14
2022-08-09T08:44:49.435Z,25.29
2022-08-09T08:47:12.949Z,25.51
2022-08-09T08:49:33.455Z,25.58
2022-08-09T08:52:10.389Z,25.91
2022-08-09T08:54:30.156Z,26.11
2022-08-09T08:56:47.670Z,26.25
2022-08-09T08:59:19.980Z,26.36
2022-08-09T09:01:45.060Z,26.43
2022-08-09T09:04:12.507Z,26.59
2022-08-09T09:06:30.311Z,26.69
2022-08-09T09:08:52.479Z,26.89
2022-08-09T09:11:17.203Z,26.83
2022-08-09T09:13:55.641Z,26.80
2022-08-09T09:16:13.463Z,26.74
2022-08-09T09:18:31.749Z,26.96
2022-08-09T09:20:48.914Z,27.17
2022-08-09T09:23:08.051Z,27.13
2022-08-09T09:26:01.653Z,27.19
2022-08-09T09:28:10.778Z,27.28
2022-08-09T09:30:40.056Z,27.31
2022-08-09T09:32:58.458Z,27.42
2022-08-09T09:35:18.310Z,27.55
2022-08-09T09:37:39.425Z,27.82
2022-08-09T09:39:57.968Z,27.96
2022-08-09T09:42:17.881Z,28.17
2022-08-09T09:44:35.048Z,28.13
2022-08-09T09:46:54.061Z,28.18
2022-08-09T09:49:12.096Z,28.23
2022-08-09T09:51:38.386Z,28.36
2022-08-09T09:54:01.306Z,28.35
2022-08-09T09:56:31.899Z,28.66
2022-08-09T09:58:51.049Z,28.67
2022-08-09T10:01:31.477Z,28.68
2022-08-09T10:03:57.004Z,28.78
2022-08-09T10:06:15.062Z,28.91
2022-08-09T10:08:33.039Z,28.98
2022-08-09T10:11:10.217Z,29.25
2022-08-09T10:13:43.413Z,29.17
2022-08-09T10:16:54.553Z,29.25
2022-08-09T10:18:41.057Z,29.46
2022-08-09T10:21:09.307Z,29.62
2022-08-09T10:23:29.096Z,29.70
2022-08-09T10:26:07.185Z,29.76
2022-08-09T10:28:27.061Z,29.86
2022-08-09T10:32:27.875Z,29.81
2022-08-09T10:34:04.538Z,29.84
2022-08-09T10:36:02.341Z,29.88
2022-08-09T10:38:54.537Z,30.14
2022-08-09T10:40:57.128Z,30.19
2022-08-09T10:43:14.257Z,30.32
2022-08-09T10:45:35.429Z,30.26
2022-08-09T10:48:19.424Z,30.39
2022-08-09T10:50:43.471Z,30.30
2022-08-09T10:53:00.484Z,30.44
2022-08-09T10:55:17.671Z,30.35
2022-08-09T10:57:36.226Z,30.49
2022-08-09T10:59:57.813Z,30.53
2022-08-09T11:03:15.056Z,30.48
2022-08-09T11:04:57.104Z,30.34
2022-08-09T11:07:14.373Z,30.37
2022-08-09T11:09:33.689Z,30.39
2022-08-09T11:11:55.328Z,30.55
2022-08-09T11:14:16.410Z,30.70
2022-08-09T11:16:47.177Z,30.78
2022-08-09T11:19:09.834Z,30.94
2022-08-09T11:21:28.007Z,30.89
2022-08-09T11:23:50.715Z,31.08
2022-08-09T11:26:10.004Z,30.94
2022-08-09T11:28:34.467Z,30.84
2022-08-09T11:30:55.786Z,30.89
2022-08-09T11:33:13.026Z,30.89
2022-08-09T11:35:35.280Z,31.11
2022-08-09T11:38:07.726Z,31.21
2022-08-09T11:40:27.515Z,31.37
2022-08-09T11:42:46.954Z,31.43
2022-08-09T11:45:05.750Z,31.40
2022-08-09T11:47:25.039Z,31.39
2022-08-09T11:49:42.944Z,31.40
2022-08-09T11:53:16.351Z,31.33
2022-08-09T11:54:56.866Z,31.62
2022-08-09T11:57:14.943Z,31.68
2022-08-09T11:59:33.451Z,31.76
2022-08-09T12:02:35.224Z,31.89
2022-08-09T12:04:37.405Z,31.74
2022-08-09T12:06:56.678Z,31.79
2022-08-09T12:09:21.150Z,31.82
2022-08-09T12:12:02.107Z,32.05
2022-08-09T12:14:36.367Z,31.79
2022-08-09T12:16:56.354Z,31.87
2022-08-09T12:19:15.743Z,32.14
2022-08-09T12:21:38.302Z,31.99
2022-08-09T12:24:08.822Z,32.18
2022-08-09T12:26:28.326Z,32.16
2022-08-09T12:29:10.989Z,31.93
2022-08-09T12:31:59.406Z,31.91
2022-08-09T12:34:01.319Z,32.17
2022-08-09T12:36:31.819Z,32.12
2022-08-09T12:38:50.900Z,32.02
2022-08-09T12:41:08.023Z,31.93
2022-08-09T12:44:05.213Z,32.01
2022-08-09T12:46:03.661Z,32.29
2022-08-09T12:48:33.258Z,32.37
2022-08-09T12:50:54.734Z,32.21
2022-08-09T12:53:19.459Z,32.14
2022-08-09T12:56:15.739Z,32.28
2022-08-09T12:58:27.264Z,32.33
2022-08-09T13:00:44.832Z,32.42
2022-08-09T13:03:03.314Z,32.28
2022-08-09T13:05:20.361Z,32.33
2022-08-09T13:07:50.959Z,32.22
2022-08-09T13:10:08.734Z,32.42
2022-08-09T13:12:28.028Z,32.51
2022-08-09T13:14:48.874Z,32.48
2022-08-09T13:17:09.080Z,32.64
2022-08-09T13:19:26.029Z,32.61
2022-08-09T13:22:36.266Z,32.73
2022-08-09T13:24:44.535Z,32.82
2022-08-09T13:27:11.378Z,32.86
2022-08-09T13:30:02.623Z,33.00
2022-08-09T13:32:19.967Z,33.09
2022-08-09T13:34:42.344Z,32.63
2022-08-09T13:36:59.422Z,32.81
2022-08-09T13:41:52.041Z,32.75
2022-08-09T13:42:00.764Z,32.88
2022-08-09T13:44:18.546Z,32.91
2022-08-09T13:47:17.793Z,32.93
2022-08-09T13:49:18.116Z,32.64
2022-08-09T13:51:35.795Z,32.55
2022-08-09T13:53:53.057Z,32.56
2022-08-09T13:56:12.315Z,32.66
2022-08-09T13:58:29.352Z,32.83
2022-08-09T14:00:50.666Z,32.75
2022-08-09T14:04:01.726Z,32.82
2022-08-09T14:05:58.860Z,32.91
2022-08-09T14:08:20.850Z,32.81
2022-08-09T14:10:50.480Z,32.92
2022-08-09T14:13:12.078Z,32.96
2022-08-09T14:16:08.874Z,32.87
2022-08-09T14:18:20.064Z,33.00
2022-08-09T14:20:48.877Z,33.16
2022-08-09T14:23:06.097Z,33.10
2022-08-09T14:25:24.626Z,33.06
2022-08-09T14:27:56.974Z,33.18
2022-08-09T14:30:36.747Z,33.14
2022-08-09T14:32:55.456Z,33.07
2022-08-09T14:35:14.736Z,33.09
2022-08-09T14:37:41.276Z,33.13
2022-08-09T14:40:09.809Z,33.39
2022-08-09T14:42:29.088Z,33.28
2022-08-09T14:44:59.245Z,33.46
2022-08-09T14:47:39.971Z,33.32
2022-08-09T14:50:01.903Z,33.31
2022-08-09T14:52:19.921Z,33.56
2022-08-09T14:54:36.878Z,33.61
2022-08-09T14:56:57.711Z,33.42
2022-08-09T14:59:15.887Z,33.37
2022-08-09T15:01:32.882Z,33.21
2022-08-09T15:03:49.998Z,32.91
2022-08-09T15:06:07.005Z,32.91
2022-08-09T15:08:25.384Z,32.95
2022-08-09T15:10:42.718Z,33.04
2022-08-09T15:13:18.505Z,33.13
2022-08-09T15:15:39.335Z,33.28
2022-08-09T15:17:58.498Z,33.20
2022-08-09T15:21:55.524Z,33.17
2022-08-09T15:23:02.862Z,32.98
2022-08-09T15:25:40.805Z,32.53
2022-08-09T15:28:01.014Z,32.20
2022-08-09T15:30:55.336Z,31.95
2022-08-09T15:32:56.007Z,31.90
2022-08-09T15:35:40.117Z,31.67
2022-08-09T15:37:57.264Z,31.40
2022-08-09T15:40:32.092Z,31.13
2022-08-09T15:42:51.854Z,30.93
2022-08-09T15:45:09.842Z,31.05
2022-08-09T15:47:32.967Z,31.06
2022-08-09T15:50:05.379Z,30.90
2022-08-09T15:52:22.931Z,30.94
2022-08-09T15:54:44.632Z,31.14
2022-08-09T15:57:04.557Z,31.38
2022-08-09T15:59:24.791Z,31.55
2022-08-09T16:01:53.983Z,31.78
2022-08-09T16:04:14.450Z,31.68
2022-08-09T16:06:35.869Z,31.52
2022-08-09T16:08:54.814Z,31.26
2022-08-09T16:11:11.923Z,31.20
2022-08-09T16:14:04.689Z,31.00
2022-08-09T16:16:17.161Z,30.72
2022-08-09T16:18:35.693Z,30.56
2022-08-09T16:20:52.983Z,30.46
2022-08-09T16:23:11.178Z,30.39
2022-08-09T16:25:37.036Z,30.33
2022-08-09T16:27:57.230Z,30.32
2022-08-09T16:30:26.028Z,30.20
2022-08-09T16:32:53.463Z,30.05
2022-08-09T16:35:11.546Z,30.03
2022-08-09T16:37:53.448Z,29.94
2022-08-09T16:40:11.517Z,29.87
2022-08-09T16:42:28.665Z,29.97
2022-08-09T16:44:45.657Z,29.95
2022-08-09T16:48:50.855Z,29.94
2022-08-09T16:50:32.232Z,30.04
2022-08-09T16:52:19.227Z,30.17
2022-08-09T16:54:36.245Z,30.31
2022-08-09T16:56:58.314Z,30.47
2022-08-09T16:59:15.408Z,30.55
2022-08-09T17:01:34.025Z,30.51
2022-08-09T17:03:52.784Z,30.35
2022-08-09T17:06:31.304Z,30.36
2022-08-09T17:08:58.864Z,30.39
2022-08-09T17:11:18.388Z,30.39
2022-08-09T17:13:45.229Z,30.35
2022-08-09T17:16:02.707Z,30.43
2022-08-09T17:18:27.140Z,30.42
2022-08-09T17:20:52.892Z,30.36
2022-08-09T17:23:10.403Z,30.36
2022-08-09T17:25:31.863Z,30.21
2022-08-09T17:27:54.597Z,30.20
2022-08-09T17:30:12.950Z,30.18
2022-08-09T17:32:34.982Z,30.08
2022-08-09T17:35:04.022Z,30.00
2022-08-09T17:37:29.678Z,29.94
2022-08-09T17:39:53.153Z,29.78
2022-08-09T17:42:41.454Z,29.79
2022-08-09T17:44:49.851Z,29.63
2022-08-09T17:47:10.583Z,29.61
2022-08-09T17:49:28.212Z,29.49
2022-08-09T17:51:49.014Z,29.31
2022-08-09T17:54:06.927Z,29.25
2022-08-09T17:56:26.583Z,29.14
2022-08-09T17:58:45.304Z,29.00
2022-08-09T18:01:02.417Z,28.91
2022-08-09T18:03:19.714Z,28.79
2022-08-09T18:05:43.810Z,28.74
2022-08-09T18:08:00.999Z,28.65
2022-08-09T18:10:20.382Z,28.52
2022-08-09T18:12:40.422Z,28.39
2022-08-09T18:14:57.974Z,28.31
2022-08-09T18:17:18.579Z,28.12
2022-08-09T18:20:55.555Z,27.96
2022-08-09T18:22:21.081Z,27.78
2022-08-09T18:24:38.914Z,27.58
2022-08-09T18:26:57.179Z,27.39
2022-08-09T18:30:40.356Z,27.17
2022-08-09T18:31:56.133Z,26.98
2022-08-09T18:34:14.383Z,26.79
2022-08-09T18:36:34.779Z,26.66
2022-08-09T18:39:00.696Z,26.51
2022-08-09T18:41:19.703Z,26.32
2022-08-09T18:43:52.876Z,26.11
2022-08-09T18:46:45.945Z,25.89
2022-08-09T18:48:47.965Z,25.74
2022-08-09T18:51:06.792Z,25.57
2022-08-09T18:53:24.393Z,25.39
2022-08-09T18:55:56.163Z,25.24
2022-08-09T18:58:19.918Z,25.04
2022-08-09T19:00:50.662Z,24.88
2022-08-09T19:03:07.676Z,24.75
2022-08-09T19:05:48.838Z,24.59
2022-08-09T19:08:09.980Z,24.48
2022-08-09T19:10:28.898Z,24.34
2022-08-09T19:15:28.709Z,24.09
2022-08-09T19:17:54.852Z,24.04
2022-08-09T19:20:15.101Z,23.86
2022-08-09T19:22:32.494Z,23.82
2022-08-09T19:25:11.632Z,23.70
2022-08-09T19:27:28.623Z,23.59
2022-08-09T19:30:21.329Z,23.44
2022-08-09T19:32:22.792Z,23.31
2022-08-09T19:34:46.742Z,23.22
2022-08-09T19:37:06.617Z,23.13
2022-08-09T19:40:03.305Z,23.01
2022-08-09T19:42:14.985Z,22.90
2022-08-09T19:44:32.795Z,22.81
2022-08-09T19:46:53.281Z,22.67
2022-08-09T19:50:08.502Z,22.58
2022-08-09T19:51:55.186Z,22.50
2022-08-09T19:54:13.347Z,22.42
2022-08-09T19:56:30.661Z,22.35
2022-08-09T19:58:56.530Z,22.22
2022-08-09T20:01:28.409Z,22.18
2022-08-09T20:04:17.128Z,22.08
2022-08-09T20:06:42.210Z,21.96
2022-08-09T20:09:02.641Z,21.84
2022-08-09T20:11:26.074Z,21.80
2022-08-09T20:13:53.724Z,21.70
2022-08-09T20:16:34.501Z,21.62
2022-08-09T20:19:03.708Z,21.53
2022-08-09T20:21:40.763Z,21.43
2022-08-09T20:24:02.940Z,21.30
2022-08-09T20:26:20.153Z,21.27
2022-08-09T20:28:48.738Z,21.20
2022-08-09T20:31:09.146Z,21.12
2022-08-09T20:33:26.427Z,21.06
2022-08-09T20:35:45.468Z,20.98
2022-08-09T20:38:22.073Z,20.98
2022-08-09T20:40:49.092Z,20.91
2022-08-09T20:43:19.082Z,20.79
2022-08-09T20:46:00.531Z,20.71
2022-08-09T20:48:21.299Z,20.64
2022-08-09T20:50:48.056Z,20.58
2022-08-09T20:53:18.541Z,20.48
2022-08-09T20:55:47.463Z,20.40
2022-08-09T20:58:19.979Z,20.31
2022-08-09T21:00:37.687Z,20.27
2022-08-09T21:03:02.418Z,20.22
2022-08-09T21:05:54.482Z,20.10
2022-08-09T21:08:01.464Z,20.12
2022-08-09T21:10:18.866Z,20.08
2022-08-09T21:12:35.950Z,19.98
2022-08-09T21:14:57.381Z,19.94
2022-08-09T21:18:25.554Z,19.89
2022-08-09T21:20:19.265Z,19.82
2022-08-09T21:22:38.320Z,19.77
2022-08-09T21:24:56.645Z,19.68
2022-08-09T21:28:01.254Z,19.65
2022-08-09T21:29:50.969Z,19.55
2022-08-09T21:32:18.621Z,19.49
2022-08-09T21:34:36.104Z,19.45
2022-08-09T21:36:55.924Z,19.39
2022-08-09T21:39:21.741Z,19.31
2022-08-09T21:42:05.569Z,19.27
2022-08-09T21:44:34.744Z,19.20
2022-08-09T21:46:52.131Z,19.13
2022-08-09T21:49:09.164Z,19.09
2022-08-09T21:51:36.265Z,19.08
2022-08-09T21:54:00.787Z,19.00
2022-08-09T21:56:42.858Z,18.95
2022-08-09T21:58:55.475Z,18.94
2022-08-09T22:01:25.924Z,18.85
2022-08-09T22:03:59.210Z,18.79
2022-08-09T22:06:17.223Z,18.72
2022-08-09T22:08:37.610Z,18.63
2022-08-09T22:11:49.646Z,18.63
2022-08-09T22:13:34.206Z,18.59
2022-08-09T22:15:52.178Z,18.51
2022-08-09T22:18:12.231Z,18.48
2022-08-09T22:20:31.337Z,18.43
2022-08-09T22:22:48.739Z,18.38
2022-08-09T22:26:06.491Z,18.33
2022-08-09T22:27:43.113Z,18.28
2022-08-09T22:30:01.148Z,18.26
2022-08-09T22:32:29.782Z,18.24
2022-08-09T22:34:50.067Z,18.18
2022-08-09T22:37:16.649Z,18.13
2022-08-09T22:39:57.501Z,18.10
2022-08-09T22:42:16.253Z,18.05
2022-08-09T22:44:39.043Z,18.03
2022-08-09T22:48:11.233Z,17.97
2022-08-09T22:49:40.487Z,17.86
2022-08-09T22:51:58.363Z,17.83
2022-08-09T22:54:21.086Z,17.80
2022-08-09T22:56:41.442Z,17.72
2022-08-09T22:58:58.935Z,17.72
2022-08-09T23:01:16.911Z,17.65
2022-08-09T23:04:03.445Z,17.57
2022-08-09T23:06:14.335Z,17.52
2022-08-09T23:08:31.817Z,17.49
2022-08-09T23:10:48.918Z,17.47
2022-08-09T23:13:06.319Z,17.44
2022-08-09T23:15:30.074Z,17.43
2022-08-09T23:17:47.289Z,17.39
2022-08-09T23:20:06.628Z,17.36
2022-08-09T23:22:24.739Z,17.29
2022-08-09T23:24:43.067Z,17.23
2022-08-09T23:27:05.835Z,17.20
2022-08-09T23:29:22.826Z,17.13
2022-08-09T23:31:39.850Z,17.15
2022-08-09T23:33:56.854Z,17.08
2022-08-09T23:36:14.171Z,17.03
2022-08-09T23:38:31.565Z,16.98
2022-08-09T23:40:48.535Z,16.97
2022-08-09T23:43:05.637Z,16.91
2022-08-09T23:45:37.138Z,16.88
2022-08-09T23:47:55.926Z,16.84
2022-08-09T23:50:13.067Z,16.83
2022-08-09T23:52:30.062Z,16.82
2022-08-09T23:54:48.127Z,16.76
2022-08-09T23:57:05.103Z,16.76
2022-08-09T23:59:22.267Z,16.72
